»·PEaware :: N208GG KBUR-KSBA

N208GG :: KBUR-KSBA

FLIGHT INFORMATION

Flight Status: Arrived
Operator: Privately registered:
United States
More flights under this callsign
Pilot: Hunter M. (19355)
Aircraft: CESSNA 172 SKYHAWK
(C172)
More flights by this aircraft type
Origin: KBUR Bob Hope-Burbank
United States
Destination: KSBA Santa Barbara Mun
United States
More flights between these airports :: More routes between these airports
Route: VNY3 FIM V186 DEANO V27 KWANG
File this flight plan on PilotEdge
Remarks: NONE
Altitude:
(Current/Filed)
6,000ft
Speed:
(Current/Filed)
118kts
Departed: 22-Apr-20 11:19 AM
Arrived: 22-Apr-20 12:17 PM
Distance/Time
Traveled:
75nm/0:58
Distance/Time
To Go:
Arrived

Flight Plot

Page will automatically refresh every two minutes.


Map Options




Map Legend


Flown Route
Filed Route
Departure Airport
Arrival Airport
Navaid (VOR, NDB)
Fix

Horizontal Profiles

Position Reports

Time Latitude Longitude Heading Altitude Ground
Speed
22-Apr-20 10:45 34.195979 -118.366639 180 781ft 0kts
22-Apr-20 10:46 34.195979 -118.366639 180 781ft 0kts
22-Apr-20 10:47 34.195979 -118.366639 180 781ft 0kts
22-Apr-20 10:48 34.195979 -118.366639 180 781ft 0kts
22-Apr-20 10:49 34.195979 -118.366639 180 781ft 0kts
22-Apr-20 10:50 34.195979 -118.366639 180 781ft 0kts
22-Apr-20 10:51 34.195979 -118.366639 180 781ft 0kts
22-Apr-20 10:52 34.195979 -118.366639 180 781ft 0kts
22-Apr-20 10:53 34.195979 -118.366639 180 781ft 0kts
22-Apr-20 10:54 34.195979 -118.366639 180 781ft 0kts
22-Apr-20 10:55 34.195979 -118.366639 180 781ft 0kts
22-Apr-20 10:56 34.195979 -118.366639 180 781ft 0kts
22-Apr-20 10:57 34.195979 -118.366639 180 781ft 0kts
22-Apr-20 10:58 34.195979 -118.366639 180 781ft 0kts
22-Apr-20 10:59 34.195979 -118.366639 180 781ft 0kts
22-Apr-20 11:00 34.195979 -118.366639 180 781ft 0kts
22-Apr-20 11:01 34.195979 -118.366639 180 781ft 0kts
22-Apr-20 11:02 34.195979 -118.366639 180 781ft 0kts
22-Apr-20 11:03 34.195979 -118.366639 180 781ft 0kts
22-Apr-20 11:04 34.195979 -118.366639 180 781ft 0kts
22-Apr-20 11:06 34.195979 -118.366639 180 781ft 0kts
22-Apr-20 11:07 34.195979 -118.366639 180 781ft 0kts
22-Apr-20 11:08 34.195979 -118.366639 180 781ft 0kts
22-Apr-20 11:09 34.195979 -118.366639 180 781ft 0kts
22-Apr-20 11:10 34.195979 -118.366639 180 781ft 0kts
22-Apr-20 11:11 34.195979 -118.366639 180 781ft 0kts
22-Apr-20 11:12 34.195979 -118.366639 180 781ft 0kts
22-Apr-20 11:13 34.195979 -118.366639 180 781ft 0kts
22-Apr-20 11:14 34.195979 -118.366639 180 781ft 0kts
22-Apr-20 11:15 34.196727 -118.367301 271 781ft 10kts
22-Apr-20 11:16 34.196939 -118.368927 350 781ft 0kts
22-Apr-20 11:17 34.196940 -118.368927 350 781ft 0kts
22-Apr-20 11:18 34.197869 -118.368684 73 781ft 9kts
22-Apr-20 11:19 34.197844 -118.363162 90 781ft 73kts
22-Apr-20 11:20 34.194165 -118.338528 136 1258ft 98kts
22-Apr-20 11:21 34.170916 -118.357973 225 2091ft 94kts
22-Apr-20 11:21 34.155536 -118.376525 225 2667ft 93kts
22-Apr-20 11:23 34.135226 -118.401021 225 3436ft 90kts
22-Apr-20 11:24 34.116383 -118.423734 225 4024ft 99kts
22-Apr-20 11:24 34.099130 -118.444536 224 3999ft 110kts
22-Apr-20 11:25 34.077857 -118.470155 225 3996ft 101kts
22-Apr-20 11:26 34.056575 -118.494312 224 4007ft 109kts
22-Apr-20 11:27 34.034237 -118.519456 225 3999ft 110kts
22-Apr-20 11:28 34.011827 -118.544678 224 4000ft 109kts
22-Apr-20 11:29 33.989551 -118.569878 224 4000ft 109kts
22-Apr-20 11:30 33.985439 -118.601207 282 4422ft 95kts
22-Apr-20 11:31 33.989318 -118.631116 282 5003ft 86kts
22-Apr-20 11:32 33.992726 -118.658631 281 5597ft 79kts
22-Apr-20 11:33 33.996507 -118.684401 281 6029ft 85kts
22-Apr-20 11:34 34.001565 -118.715320 282 5986ft 91kts
22-Apr-20 11:35 34.010033 -118.741827 293 6003ft 84kts
22-Apr-20 11:36 34.020435 -118.768460 294 6001ft 89kts
22-Apr-20 11:37 34.031185 -118.795731 295 6000ft 90kts
22-Apr-20 11:38 34.041926 -118.823120 295 5999ft 90kts
22-Apr-20 11:39 34.052643 -118.850435 295 6056ft 91kts
22-Apr-20 11:40 34.064832 -118.881461 293 5984ft 92kts
22-Apr-20 11:41 34.075437 -118.908948 293 5999ft 90kts
22-Apr-20 11:42 34.086123 -118.936324 293 6000ft 90kts
22-Apr-20 11:43 34.096803 -118.963697 293 6000ft 90kts
22-Apr-20 11:44 34.107467 -118.991052 293 5999ft 90kts
22-Apr-20 11:45 34.118097 -119.018333 294 6000ft 90kts
22-Apr-20 11:46 34.128755 -119.045713 293 6000ft 90kts
22-Apr-20 11:47 34.139417 -119.073145 294 5999ft 90kts
22-Apr-20 11:48 34.150251 -119.101033 295 5686ft 91kts
22-Apr-20 11:49 34.160875 -119.128357 293 5375ft 90kts
22-Apr-20 11:50 34.171545 -119.155899 295 5075ft 91kts
22-Apr-20 11:51 34.182385 -119.183863 297 4777ft 93kts
22-Apr-20 11:52 34.193514 -119.212593 297 4478ft 95kts
22-Apr-20 11:53 34.204889 -119.241965 297 4181ft 97kts
22-Apr-20 11:54 34.216806 -119.272782 296 3998ft 103kts
22-Apr-20 11:55 34.228844 -119.303774 294 3999ft 101kts
22-Apr-20 11:56 34.240402 -119.333882 293 4003ft 96kts
22-Apr-20 11:57 34.252046 -119.364152 293 4001ft 101kts
22-Apr-20 11:58 34.263984 -119.395231 291 3999ft 102kts
22-Apr-20 11:59 34.275563 -119.426876 294 4001ft 102kts
22-Apr-20 12:00 34.287424 -119.458590 294 4001ft 105kts
22-Apr-20 12:01 34.299405 -119.489863 293 3988ft 96kts
22-Apr-20 12:02 34.310461 -119.518394 293 3977ft 95kts
22-Apr-20 12:03 34.321535 -119.548369 293 3475ft 94kts
22-Apr-20 12:04 34.332223 -119.577680 293 2900ft 95kts
22-Apr-20 12:05 34.343993 -119.606281 300 2345ft 94kts
22-Apr-20 12:06 34.356402 -119.632600 297 2098ft 82kts
22-Apr-20 12:07 34.366808 -119.656949 302 2070ft 75kts
22-Apr-20 12:08 34.377100 -119.679085 294 2131ft 69kts
22-Apr-20 12:09 34.384649 -119.700530 292 2158ft 70kts
22-Apr-20 12:10 34.393234 -119.721928 295 2035ft 69kts
22-Apr-20 12:11 34.400671 -119.743495 286 1648ft 69kts
22-Apr-20 12:12 34.406242 -119.765794 285 1241ft 68kts
22-Apr-20 12:13 34.412860 -119.787450 293 891ft 68kts
22-Apr-20 12:14 34.424979 -119.804277 302 740ft 65kts
22-Apr-20 12:15 34.428208 -119.825408 266 273ft 64kts
22-Apr-20 12:16 34.428400 -119.838083 344 13ft 0kts
22-Apr-20 12:17 34.430372 -119.838768 338 13ft 21kts

Navigation Log

Ident Type
Flight plan parsing failed, navigation log unavailable